Time,TemperatureF,DewpointF,PressureIn,WindDirection,WindDirectionDegrees,WindSpeedMPH,WindSpeedGustMPH,Humidity,HourlyPrecipIn,Conditions,Clouds,dailyrainin,SolarRadiationWatts/m^2,SoftwareType,DateUTC
2013-02-04 00:12:00,27.1,25.0,29.64,WNW,285,5.0,15.0,93,0.00,,,0.00,0,weatherlink.com 1.10,2013-02-04 05:12:00,
2013-02-04 00:27:00,26.7,25.0,29.65,WNW,303,2.0,14.0,93,0.00,,,0.00,0,weatherlink.com 1.10,2013-02-04 05:27:00,
2013-02-04 00:42:00,26.6,25.0,29.64,West,281,6.0,10.0,93,0.00,,,0.00,0,weatherlink.com 1.10,2013-02-04 05:42:00,
2013-02-04 00:58:00,26.6,25.0,29.65,WSW,252,3.0,12.0,92,0.00,,,0.00,0,weatherlink.com 1.10,2013-02-04 05:58:00,
2013-02-04 01:13:00,26.4,24.0,29.65,North,349,6.0,13.0,91,0.00,,,0.00,0,weatherlink.com 1.10,2013-02-04 06:13:00,
2013-02-04 01:28:00,26.4,24.0,29.66,WNW,285,6.0,11.0,91,0.00,,,0.00,0,weatherlink.com 1.10,2013-02-04 06:28:00,
2013-02-04 01:43:00,26.2,24.0,29.66,West,277,2.0,12.0,90,0.00,,,0.00,0,weatherlink.com 1.10,2013-02-04 06:43:00,
2013-02-04 01:58:00,26.2,24.0,29.66,WNW,287,3.0,9.0,90,0.00,,,0.00,0,weatherlink.com 1.10,2013-02-04 06:58:00,
2013-02-04 02:13:00,26.2,24.0,29.66,NW,318,0.0,10.0,90,0.00,,,0.00,0,weatherlink.com 1.10,2013-02-04 07:13:00,
2013-02-04 02:28:00,26.2,23.0,29.66,WNW,289,7.0,11.0,88,0.00,,,0.00,0,weatherlink.com 1.10,2013-02-04 07:28:00,
2013-02-04 02:43:00,26.2,23.0,29.66,North,351,10.0,10.0,87,0.00,,,0.00,0,weatherlink.com 1.10,2013-02-04 07:43:00,
2013-02-04 02:58:00,26.0,23.0,29.66,NNW,346,1.0,9.0,87,0.00,,,0.00,0,weatherlink.com 1.10,2013-02-04 07:58:00,
2013-02-04 03:13:00,25.7,22.0,29.66,WSW,247,3.0,11.0,87,0.00,,,0.00,0,weatherlink.com 1.10,2013-02-04 08:13:00,
2013-02-04 03:28:00,25.6,22.0,29.66,WNW,285,0.0,10.0,86,0.00,,,0.00,0,weatherlink.com 1.10,2013-02-04 08:28:00,
2013-02-04 03:43:00,25.2,22.0,29.66,West,272,9.0,12.0,86,0.00,,,0.00,0,weatherlink.com 1.10,2013-02-04 08:43:00,
2013-02-04 03:58:00,25.3,22.0,29.67,WNW,288,4.0,11.0,86,0.00,,,0.00,0,weatherlink.com 1.10,2013-02-04 08:58:00,
2013-02-04 04:13:00,25.1,22.0,29.67,West,274,3.0,11.0,87,0.00,,,0.00,0,weatherlink.com 1.10,2013-02-04 09:13:00,
2013-02-04 04:28:00,24.6,21.0,29.68,NW,321,2.0,11.0,87,0.00,,,0.00,0,weatherlink.com 1.10,2013-02-04 09:28:00,
2013-02-04 04:43:00,24.7,20.0,29.68,NNE,20,0.0,8.0,83,0.00,,,0.00,0,weatherlink.com 1.10,2013-02-04 09:43:00,
2013-02-04 04:58:00,24.9,20.0,29.68,West,272,3.0,14.0,80,0.00,,,0.00,0,weatherlink.com 1.10,2013-02-04 09:58:00,
2013-02-04 05:13:00,25.0,19.0,29.69,WNW,282,4.0,16.0,77,0.00,,,0.00,0,weatherlink.com 1.10,2013-02-04 10:13:00,
2013-02-04 05:28:00,24.9,19.0,29.69,NW,309,9.0,16.0,78,0.00,,,0.00,0,weatherlink.com 1.10,2013-02-04 10:28:00,
2013-02-04 05:43:00,24.9,19.0,29.69,WNW,298,6.0,12.0,77,0.00,,,0.00,0,weatherlink.com 1.10,2013-02-04 10:43:00,
2013-02-04 05:58:00,25.2,19.0,29.70,WSW,252,9.0,14.0,76,0.00,,,0.00,0,weatherlink.com 1.10,2013-02-04 10:58:00,
2013-02-04 06:13:00,25.0,18.0,29.70,WNW,285,7.0,12.0,75,0.00,,,0.00,0,weatherlink.com 1.10,2013-02-04 11:13:00,
2013-02-04 06:28:00,25.0,18.0,29.71,WSW,237,8.0,14.0,74,0.00,,,0.00,0,weatherlink.com 1.10,2013-02-04 11:28:00,
2013-02-04 06:43:00,25.2,18.0,29.71,WNW,290,3.0,16.0,73,0.00,,,0.00,0,weatherlink.com 1.10,2013-02-04 11:43:00,
2013-02-04 06:58:00,25.4,18.0,29.72,North,355,5.0,13.0,73,0.00,,,0.00,0,weatherlink.com 1.10,2013-02-04 11:58:00,
2013-02-04 07:13:00,25.2,18.0,29.72,WNW,301,6.0,12.0,74,0.00,,,0.00,11,weatherlink.com 1.10,2013-02-04 12:13:00,
2013-02-04 07:28:00,25.2,18.0,29.72,West,276,4.0,13.0,74,0.00,,,0.00,14,weatherlink.com 1.10,2013-02-04 12:28:00,
2013-02-04 07:44:00,25.4,18.0,29.73,WNW,284,2.0,13.0,74,0.00,,,0.00,32,weatherlink.com 1.10,2013-02-04 12:44:00,
2013-02-04 07:59:00,25.7,18.0,29.73,NW,311,3.0,15.0,72,0.00,,,0.00,58,weatherlink.com 1.10,2013-02-04 12:59:00,
2013-02-04 08:14:00,26.2,18.0,29.74,WNW,287,8.0,14.0,71,0.00,,,0.00,125,weatherlink.com 1.10,2013-02-04 13:14:00,
2013-02-04 08:29:00,26.3,17.0,29.74,WNW,297,7.0,15.0,69,0.00,,,0.00,107,weatherlink.com 1.10,2013-02-04 13:29:00,
2013-02-04 08:44:00,26.3,17.0,29.74,WNW,297,4.0,16.0,68,0.00,,,0.00,151,weatherlink.com 1.10,2013-02-04 13:44:00,
2013-02-04 08:59:00,26.7,18.0,29.74,West,262,3.0,15.0,69,0.00,,,0.00,202,weatherlink.com 1.10,2013-02-04 13:59:00,
2013-02-04 09:14:00,27.0,17.0,29.74,WNW,290,6.0,14.0,66,0.00,,,0.00,388,weatherlink.com 1.10,2013-02-04 14:14:00,
2013-02-04 09:29:00,27.2,16.0,29.74,WSW,257,3.0,15.0,64,0.00,,,0.00,417,weatherlink.com 1.10,2013-02-04 14:29:00,
2013-02-04 09:44:00,27.7,16.0,29.75,West,262,2.0,14.0,63,0.00,,,0.00,445,weatherlink.com 1.10,2013-02-04 14:44:00,
2013-02-04 09:59:00,28.1,15.0,29.74,WNW,301,9.0,17.0,59,0.00,,,0.00,455,weatherlink.com 1.10,2013-02-04 14:59:00,
2013-02-04 10:14:00,28.3,15.0,29.74,WNW,293,4.0,17.0,59,0.00,,,0.00,473,weatherlink.com 1.10,2013-02-04 15:14:00,
2013-02-04 10:29:00,28.6,15.0,29.74,WNW,295,0.0,18.0,57,0.00,,,0.00,501,weatherlink.com 1.10,2013-02-04 15:29:00,
2013-02-04 10:44:00,29.6,16.0,29.74,West,276,4.0,13.0,57,0.00,,,0.00,524,weatherlink.com 1.10,2013-02-04 15:44:00,
2013-02-04 10:59:00,29.4,14.0,29.74,WNW,301,9.0,19.0,53,0.00,,,0.00,538,weatherlink.com 1.10,2013-02-04 15:59:00,
2013-02-04 11:14:00,29.4,14.0,29.74,WNW,288,5.0,21.0,53,0.00,,,0.00,554,weatherlink.com 1.10,2013-02-04 16:14:00,
2013-02-04 11:29:00,29.8,14.0,29.74,NW,309,9.0,16.0,51,0.00,,,0.00,564,weatherlink.com 1.10,2013-02-04 16:29:00,
2013-02-04 11:44:00,30.2,13.0,29.74,WNW,295,8.0,13.0,49,0.00,,,0.00,571,weatherlink.com 1.10,2013-02-04 16:44:00,
2013-02-04 11:59:00,30.1,11.0,29.73,West,271,2.0,19.0,45,0.00,,,0.00,577,weatherlink.com 1.10,2013-02-04 16:59:00,
2013-02-04 12:14:00,30.5,12.0,29.73,WNW,290,10.0,17.0,47,0.00,,,0.00,580,weatherlink.com 1.10,2013-02-04 17:14:00,
2013-02-04 12:29:00,30.6,12.0,29.73,NW,320,12.0,13.0,47,0.00,,,0.00,570,weatherlink.com 1.10,2013-02-04 17:29:00,
2013-02-04 12:44:00,30.5,12.0,29.73,WNW,289,10.0,16.0,47,0.00,,,0.00,566,weatherlink.com 1.10,2013-02-04 17:44:00,
2013-02-04 12:59:00,30.4,12.0,29.73,WSW,257,6.0,20.0,46,0.00,,,0.00,577,weatherlink.com 1.10,2013-02-04 17:59:00,
2013-02-04 13:14:00,30.8,13.0,29.73,WNW,300,5.0,18.0,48,0.00,,,0.00,548,weatherlink.com 1.10,2013-02-04 18:14:00,
2013-02-04 13:29:00,30.8,13.0,29.72,NW,312,12.0,17.0,47,0.00,,,0.00,563,weatherlink.com 1.10,2013-02-04 18:29:00,
2013-02-04 13:44:00,31.7,13.0,29.73,WNW,291,4.0,15.0,46,0.00,,,0.00,499,weatherlink.com 1.10,2013-02-04 18:44:00,
2013-02-04 14:00:00,31.6,12.0,29.73,WSW,239,3.0,10.0,45,0.01,,,0.01,462,weatherlink.com 1.10,2013-02-04 19:00:00,
2013-02-04 14:15:00,31.5,12.0,29.73,NW,316,2.0,12.0,45,0.01,,,0.01,332,weatherlink.com 1.10,2013-02-04 19:15:00,
2013-02-04 14:30:00,30.3,11.0,29.74,WNW,290,5.0,17.0,44,0.01,,,0.01,236,weatherlink.com 1.10,2013-02-04 19:30:00,
2013-02-04 14:45:00,30.4,11.0,29.74,WNW,302,17.0,17.0,44,0.01,,,0.01,74,weatherlink.com 1.10,2013-02-04 19:45:00,
2013-02-04 15:00:00,30.8,12.0,29.74,SSW,212,2.0,13.0,46,0.00,,,0.01,72,weatherlink.com 1.10,2013-02-04 20:00:00,
2013-02-04 15:15:00,30.2,11.0,29.75,SW,234,0.0,13.0,44,0.00,,,0.01,128,weatherlink.com 1.10,2013-02-04 20:15:00,
2013-02-04 15:30:00,29.6,11.0,29.76,SW,225,3.0,13.0,46,0.00,,,0.01,111,weatherlink.com 1.10,2013-02-04 20:30:00,
2013-02-04 15:45:00,29.6,11.0,29.77,WNW,301,12.0,16.0,47,0.00,,,0.01,105,weatherlink.com 1.10,2013-02-04 20:45:00,
2013-02-04 16:00:00,29.0,11.0,29.77,NW,312,7.0,12.0,47,0.00,,,0.01,46,weatherlink.com 1.10,2013-02-04 21:00:00,
2013-02-04 16:15:00,28.3,11.0,29.77,WNW,301,2.0,11.0,49,0.00,,,0.01,23,weatherlink.com 1.10,2013-02-04 21:15:00,
2013-02-04 16:30:00,28.0,11.0,29.77,West,281,5.0,11.0,49,0.00,,,0.01,19,weatherlink.com 1.10,2013-02-04 21:30:00,
2013-02-04 16:45:00,27.9,11.0,29.77,WNW,282,5.0,8.0,50,0.00,,,0.01,12,weatherlink.com 1.10,2013-02-04 21:45:00,
2013-02-04 17:00:00,27.7,11.0,29.78,West,277,1.0,9.0,49,0.00,,,0.01,0,weatherlink.com 1.10,2013-02-04 22:00:00,
2013-02-04 17:15:00,27.1,11.0,29.78,WSW,245,1.0,3.0,52,0.00,,,0.01,0,weatherlink.com 1.10,2013-02-04 22:15:00,
2013-02-04 17:30:00,27.0,11.0,29.79,NW,310,3.0,9.0,51,0.00,,,0.01,0,weatherlink.com 1.10,2013-02-04 22:30:00,
2013-02-04 17:45:00,27.1,11.0,29.80,West,273,0.0,8.0,51,0.00,,,0.01,0,weatherlink.com 1.10,2013-02-04 22:45:00,
2013-02-04 18:00:00,26.8,12.0,29.81,West,266,0.0,5.0,53,0.00,,,0.01,0,weatherlink.com 1.10,2013-02-04 23:00:00,
2013-02-04 18:15:00,26.3,11.0,29.82,West,279,1.0,4.0,52,0.00,,,0.01,0,weatherlink.com 1.10,2013-02-04 23:15:00,
2013-02-04 18:30:00,26.7,10.0,29.83,WSW,257,4.0,9.0,50,0.00,,,0.01,0,weatherlink.com 1.10,2013-02-04 23:30:00,
2013-02-04 18:45:00,26.7,10.0,29.83,WSW,242,0.0,10.0,50,0.00,,,0.01,0,weatherlink.com 1.10,2013-02-04 23:45:00,
2013-02-04 19:00:00,26.2,11.0,29.84,WSW,239,1.0,4.0,52,0.00,,,0.01,0,weatherlink.com 1.10,2013-02-05 00:00:00,
2013-02-04 19:15:00,25.6,11.0,29.85,SW,227,0.0,3.0,54,0.00,,,0.01,0,weatherlink.com 1.10,2013-02-05 00:15:00,
2013-02-04 19:30:00,25.7,11.0,29.85,SSW,209,3.0,8.0,53,0.00,,,0.01,0,weatherlink.com 1.10,2013-02-05 00:30:00,
2013-02-04 19:45:00,25.6,11.0,29.85,SSW,213,0.0,2.0,55,0.00,,,0.01,0,weatherlink.com 1.10,2013-02-05 00:45:00,
2013-02-04 20:00:00,25.4,11.0,29.86,WSW,247,2.0,8.0,54,0.00,,,0.01,0,weatherlink.com 1.10,2013-02-05 01:00:00,
2013-02-04 20:15:00,25.4,11.0,29.86,SW,235,0.0,5.0,55,0.00,,,0.01,0,weatherlink.com 1.10,2013-02-05 01:15:00,
2013-02-04 20:30:00,25.2,11.0,29.86,West,274,0.0,5.0,56,0.00,,,0.01,0,weatherlink.com 1.10,2013-02-05 01:30:00,
2013-02-04 20:45:00,25.1,12.0,29.87,WNW,297,0.0,7.0,57,0.00,,,0.01,0,weatherlink.com 1.10,2013-02-05 01:45:00,
2013-02-04 21:00:00,24.8,12.0,29.88,West,266,0.0,3.0,59,0.00,,,0.01,0,weatherlink.com 1.10,2013-02-05 02:00:00,
2013-02-04 21:15:00,24.8,12.0,29.89,SW,220,4.0,5.0,59,0.00,,,0.01,0,weatherlink.com 1.10,2013-02-05 02:15:00,
2013-02-04 21:30:00,24.7,12.0,29.89,WSW,240,0.0,7.0,60,0.00,,,0.01,0,weatherlink.com 1.10,2013-02-05 02:30:00,
2013-02-04 21:45:00,24.8,12.0,29.89,West,276,1.0,7.0,59,0.00,,,0.01,0,weatherlink.com 1.10,2013-02-05 02:45:00,
2013-02-04 22:00:00,24.7,12.0,29.89,WSW,245,0.0,8.0,59,0.00,,,0.01,0,weatherlink.com 1.10,2013-02-05 03:00:00,
2013-02-04 22:15:00,24.2,12.0,29.89,WSW,243,0.0,7.0,61,0.00,,,0.01,0,weatherlink.com 1.10,2013-02-05 03:15:00,
2013-02-04 22:30:00,24.4,13.0,29.89,WNW,287,0.0,8.0,62,0.00,,,0.01,0,weatherlink.com 1.10,2013-02-05 03:30:00,
2013-02-04 22:45:00,24.5,13.0,29.89,WNW,282,0.0,8.0,62,0.00,,,0.01,0,weatherlink.com 1.10,2013-02-05 03:45:00,
2013-02-04 23:00:00,24.0,13.0,29.90,WSW,241,0.0,5.0,63,0.00,,,0.01,0,weatherlink.com 1.10,2013-02-05 04:00:00,
2013-02-04 23:15:00,24.0,13.0,29.91,WNW,286,0.0,7.0,63,0.00,,,0.01,0,weatherlink.com 1.10,2013-02-05 04:15:00,
2013-02-04 23:30:00,24.3,13.0,29.91,WNW,285,4.0,10.0,63,0.00,,,0.01,0,weatherlink.com 1.10,2013-02-05 04:30:00,
2013-02-04 23:45:00,24.3,13.0,29.91,WSW,240,1.0,6.0,63,0.00,,,0.01,0,weatherlink.com 1.10,2013-02-05 04:45:00,